Time;durP1;ratioP1;P1;durP2;ratioP2;P2;SDS_P1;SDS_P2;PMS_P1;PMS_P2;Temp;Humidity;BMP_temperature;BMP_pressure;BME280_temperature;BME280_humidity;BME280_pressure;Samples;Min_cycle;Max_cycle;Signal;HPM_P1;HPM_P2
2024/02/01 00:01:49;;;;;;;3.45;3.15;;;7.90;99.90;;;;;;5040272;28;20244;-76
2024/02/01 00:04:16;;;;;;;3.28;2.97;;;7.80;99.90;;;;;;5033256;28;20295;-76
2024/02/01 00:06:45;;;;;;;3.70;3.10;;;7.80;99.90;;;;;;5033004;28;20204;-76
2024/02/01 00:09:13;;;;;;;4.05;3.22;;;7.70;99.90;;;;;;5041690;28;20239;-75
2024/02/01 00:11:40;;;;;;;5.28;3.05;;;7.70;99.90;;;;;;5033442;28;20205;-76
2024/02/01 00:14:07;;;;;;;3.25;2.88;;;7.70;99.90;;;;;;5035659;28;20327;-76
2024/02/01 00:16:33;;;;;;;4.13;3.00;;;7.70;99.90;;;;;;5035008;28;20212;-76
2024/02/01 00:19:00;;;;;;;6.95;3.08;;;7.70;99.90;;;;;;5036184;28;20225;-76
2024/02/01 00:21:27;;;;;;;10.05;3.47;;;7.60;99.90;;;;;;5035274;28;20578;-76
2024/02/01 00:23:54;;;;;;;6.28;3.00;;;7.60;99.90;;;;;;5035420;28;20214;-76
2024/02/01 00:26:22;;;;;;;4.15;3.20;;;7.60;99.90;;;;;;5035693;28;20220;-76
2024/02/01 00:28:49;;;;;;;3.55;2.95;;;7.50;99.90;;;;;;5035206;28;20237;-76
2024/02/01 00:31:16;;;;;;;3.90;3.10;;;7.50;99.90;;;;;;5036587;28;20213;-76
2024/02/01 00:33:43;;;;;;;3.45;2.72;;;7.50;99.90;;;;;;5035448;28;20677;-76
2024/02/01 00:36:09;;;;;;;3.65;2.65;;;7.40;99.90;;;;;;5036450;28;20259;-76
2024/02/01 00:38:36;;;;;;;5.90;2.95;;;7.40;99.90;;;;;;5035360;28;20233;-76
2024/02/01 00:41:04;;;;;;;6.80;4.00;;;7.40;99.90;;;;;;5036900;28;20217;-76
2024/02/01 00:43:32;;;;;;;5.63;3.33;;;7.30;99.90;;;;;;5050217;28;20211;-76
2024/02/01 00:45:59;;;;;;;3.17;2.85;;;7.40;99.90;;;;;;5036029;28;20709;-76
2024/02/01 00:48:26;;;;;;;4.47;3.08;;;7.40;99.90;;;;;;5035811;28;20232;-76
2024/02/01 00:50:53;;;;;;;3.47;2.75;;;7.40;99.90;;;;;;5035467;28;20207;-76
2024/02/01 00:53:22;;;;;;;3.70;3.22;;;7.50;99.90;;;;;;5036931;28;20219;-76
2024/02/01 00:55:50;;;;;;;3.53;3.13;;;7.50;99.90;;;;;;5035409;28;20208;-76
2024/02/01 00:58:17;;;;;;;3.50;3.20;;;7.60;99.90;;;;;;5037250;28;20235;-76
2024/02/01 01:00:45;;;;;;;3.55;3.03;;;7.60;99.90;;;;;;5035276;28;20712;-75
2024/02/01 01:03:12;;;;;;;3.42;3.13;;;7.60;99.90;;;;;;5037602;28;20219;-75
2024/02/01 01:05:39;;;;;;;4.07;3.35;;;7.70;99.90;;;;;;5034642;28;20220;-75
2024/02/01 01:08:07;;;;;;;4.85;3.17;;;7.70;99.90;;;;;;5037518;28;20582;-75
2024/02/01 01:10:33;;;;;;;3.85;3.22;;;7.70;99.90;;;;;;5049940;28;20211;-75
2024/02/01 01:13:00;;;;;;;3.70;3.40;;;7.70;99.90;;;;;;5036874;28;20208;-75
2024/02/01 01:15:27;;;;;;;5.57;3.90;;;7.70;99.90;;;;;;5036018;28;20224;-75
2024/02/01 01:17:55;;;;;;;4.03;3.30;;;7.80;99.90;;;;;;5035681;28;20236;-75
2024/02/01 01:20:22;;;;;;;3.03;2.72;;;7.80;99.90;;;;;;5037081;28;20211;-75
2024/02/01 01:22:48;;;;;;;3.85;3.13;;;7.80;99.90;;;;;;5035836;28;20209;-75
2024/02/01 01:25:15;;;;;;;4.10;3.75;;;7.80;99.90;;;;;;5037722;28;20604;-75
2024/02/01 01:27:42;;;;;;;4.38;3.78;;;7.80;99.90;;;;;;5036074;28;20222;-75
2024/02/01 01:30:10;;;;;;;5.03;3.67;;;7.80;99.90;;;;;;5037864;28;20232;-75
2024/02/01 01:32:36;;;;;;;3.67;3.35;;;7.90;99.90;;;;;;5036146;28;20843;-75
2024/02/01 01:35:05;;;;;;;6.88;3.85;;;7.90;99.90;;;;;;5037184;28;20210;-76
2024/02/01 01:37:32;;;;;;;5.00;3.20;;;7.90;99.90;;;;;;5036021;28;20219;-76
2024/02/01 01:39:59;;;;;;;7.88;3.63;;;7.90;99.90;;;;;;5036701;28;20209;-75
2024/02/01 01:42:26;;;;;;;5.35;3.63;;;7.90;99.90;;;;;;5036949;28;20209;-76
2024/02/01 01:44:52;;;;;;;3.35;3.03;;;7.90;99.90;;;;;;5036468;28;20212;-76
2024/02/01 01:47:19;;;;;;;5.38;3.70;;;7.90;99.90;;;;;;5038327;28;20215;-76
2024/02/01 01:49:46;;;;;;;7.45;4.10;;;7.90;99.90;;;;;;5035984;28;20213;-76
2024/02/01 01:52:15;;;;;;;4.45;3.28;;;7.90;99.90;;;;;;5038391;28;20213;-75
2024/02/01 01:54:42;;;;;;;3.60;3.25;;;7.90;99.90;;;;;;5036451;28;20213;-75
2024/02/01 01:57:09;;;;;;;3.95;3.47;;;7.90;99.90;;;;;;5038148;28;20209;-75
2024/02/01 01:59:36;;;;;;;3.90;3.47;;;7.80;99.90;;;;;;5041515;28;20221;-75
2024/02/01 02:02:05;;;;;;;7.75;3.95;;;7.80;99.90;;;;;;5037566;28;20220;-75
2024/02/01 02:04:32;;;;;;;4.93;3.55;;;7.80;99.90;;;;;;5036503;28;20211;-75
2024/02/01 02:06:59;;;;;;;6.80;3.65;;;7.80;99.90;;;;;;5036845;28;20570;-75
2024/02/01 02:09:27;;;;;;;4.00;3.15;;;7.80;99.90;;;;;;5043227;28;20220;-75
2024/02/01 02:11:54;;;;;;;4.10;2.92;;;7.70;99.90;;;;;;5036310;28;20673;-76
2024/02/01 02:14:21;;;;;;;3.78;3.03;;;7.70;99.90;;;;;;5044262;28;20203;-76
2024/02/01 02:16:47;;;;;;;3.88;3.00;;;7.70;99.90;;;;;;5035782;28;20209;-76
2024/02/01 02:19:14;;;;;;;7.07;3.00;;;7.60;99.90;;;;;;5038899;28;20228;-75
2024/02/01 02:21:47;;;;;;;5.28;3.30;;;7.60;99.90;;;;;;5036413;28;20236;-75
2024/02/01 02:24:14;;;;;;;3.95;2.83;;;7.60;99.90;;;;;;5039260;28;20209;-76
2024/02/01 02:26:41;;;;;;;3.95;3.03;;;7.50;99.90;;;;;;5036164;28;20752;-75
2024/02/01 02:29:08;;;;;;;2.40;2.08;;;7.50;99.90;;;;;;5038587;28;20225;-76
2024/02/01 02:31:35;;;;;;;6.07;3.30;;;7.50;99.90;;;;;;5036956;28;20210;-76
2024/02/01 02:34:02;;;;;;;4.30;3.05;;;7.60;99.90;;;;;;5037932;28;20208;-76
2024/02/01 02:36:29;;;;;;;4.30;3.20;;;7.80;99.90;;;;;;5037785;28;20208;-76
2024/02/01 02:38:57;;;;;;;5.07;2.50;;;7.90;99.90;;;;;;5036950;28;20221;-76
2024/02/01 02:41:23;;;;;;;3.72;3.03;;;8.00;99.90;;;;;;5038720;28;20290;-76
2024/02/01 02:43:50;;;;;;;2.92;2.45;;;8.10;99.90;;;;;;5036766;28;20212;-75
2024/02/01 02:46:17;;;;;;;3.38;2.50;;;8.20;99.90;;;;;;5039217;28;20597;-76
2024/02/01 02:48:44;;;;;;;3.30;3.00;;;8.30;99.90;;;;;;5036720;28;20231;-76
2024/02/01 02:51:11;;;;;;;2.67;2.47;;;8.40;99.90;;;;;;5039378;28;20208;-76
2024/02/01 02:53:37;;;;;;;3.33;2.85;;;8.40;99.90;;;;;;5037181;28;20332;-76
2024/02/01 02:56:08;;;;;;;3.78;2.92;;;8.50;99.90;;;;;;5038431;28;20205;-75
2024/02/01 02:58:36;;;;;;;3.08;2.50;;;8.50;99.90;;;;;;5037709;28;20232;-76
2024/02/01 03:01:08;;;;;;;4.13;3.33;;;8.50;99.90;;;;;;5038296;28;20230;-76
2024/02/01 03:03:39;;;;;;;5.97;3.35;;;8.40;99.90;;;;;;5042950;28;20217;-76
2024/02/01 03:06:06;;;;;;;3.00;2.50;;;8.40;99.90;;;;;;5038668;28;20252;-76
2024/02/01 03:08:32;;;;;;;3.17;2.55;;;8.50;99.90;;;;;;5038206;28;20324;-76
2024/02/01 03:10:59;;;;;;;5.32;3.20;;;8.50;99.90;;;;;;5037982;28;20202;-75
2024/02/01 03:13:27;;;;;;;3.75;2.88;;;8.50;99.90;;;;;;5039505;28;20215;-75
2024/02/01 03:15:54;;;;;;;4.13;2.80;;;8.50;99.90;;;;;;5037320;28;20599;-76
2024/02/01 03:18:23;;;;;;;4.57;2.92;;;8.50;99.90;;;;;;5040518;28;20222;-75
2024/02/01 03:20:51;;;;;;;3.80;3.00;;;8.50;99.90;;;;;;5037330;28;20217;-75
2024/02/01 03:23:18;;;;;;;4.20;2.50;;;8.50;99.90;;;;;;5037581;28;20295;-75
2024/02/01 03:25:45;;;;;;;3.40;2.35;;;8.40;99.90;;;;;;5037127;28;20217;-75
2024/02/01 03:28:13;;;;;;;3.55;2.28;;;8.40;99.90;;;;;;5041649;28;20320;-75
2024/02/01 03:30:46;;;;;;;3.00;2.22;;;8.40;99.90;;;;;;5041388;28;20269;-75
2024/02/01 03:33:13;;;;;;;2.55;2.28;;;8.40;99.90;;;;;;5044054;28;20305;-75
2024/02/01 03:35:41;;;;;;;3.15;2.20;;;8.30;99.90;;;;;;5041223;28;20217;-75
2024/02/01 03:38:08;;;;;;;2.80;1.88;;;8.30;99.90;;;;;;5043230;28;20225;-75
2024/02/01 03:40:38;;;;;;;3.95;2.05;;;8.20;99.90;;;;;;5042207;28;20211;-75
2024/02/01 03:43:05;;;;;;;2.90;2.17;;;8.20;99.90;;;;;;5042975;28;20732;-75
2024/02/01 03:45:32;;;;;;;2.58;2.30;;;8.20;99.90;;;;;;5042669;28;20213;-75
2024/02/01 03:48:00;;;;;;;2.13;1.92;;;8.20;99.90;;;;;;5042616;28;20244;-75
2024/02/01 03:50:27;;;;;;;2.95;2.65;;;8.20;99.90;;;;;;5045091;28;20654;-76
2024/02/01 03:52:54;;;;;;;2.40;2.17;;;8.30;99.90;;;;;;5043125;28;20202;-75
2024/02/01 03:55:21;;;;;;;4.10;2.95;;;8.30;99.90;;;;;;5050118;28;20219;-75
2024/02/01 03:57:48;;;;;;;2.20;1.65;;;8.30;99.90;;;;;;5042528;28;20240;-75
2024/02/01 04:00:29;;;;;;;2.45;2.25;;;8.30;99.90;;;;;;5045592;28;20737;-75
2024/02/01 04:02:56;;;;;;;2.40;2.20;;;8.30;99.90;;;;;;5054587;28;20205;-75
2024/02/01 04:05:25;;;;;;;1.55;1.45;;;8.30;99.90;;;;;;5050120;28;20208;-75
2024/02/01 04:07:51;;;;;;;2.63;1.90;;;8.30;99.90;;;;;;5042516;28;20218;-75
2024/02/01 04:10:18;;;;;;;5.32;1.83;;;8.30;99.90;;;;;;5042536;28;20209;-75
2024/02/01 04:12:45;;;;;;;3.08;2.13;;;8.30;99.90;;;;;;5043130;28;20209;-75
2024/02/01 04:15:12;;;;;;;3.00;1.83;;;8.30;99.90;;;;;;5049574;28;20224;-75
2024/02/01 04:17:38;;;;;;;1.67;1.30;;;8.30;99.90;;;;;;5047365;28;20233;-76
2024/02/01 04:20:06;;;;;;;3.50;2.17;;;8.30;99.90;;;;;;5050617;28;20228;-77
2024/02/01 04:22:35;;;;;;;2.45;2.25;;;8.30;99.90;;;;;;5046411;28;20665;-77
2024/02/01 04:25:01;;;;;;;3.08;1.40;;;8.40;99.90;;;;;;5048331;28;20228;-76
2024/02/01 04:27:28;;;;;;;4.78;1.90;;;8.40;99.90;;;;;;5048217;28;20217;-76
2024/02/01 04:29:55;;;;;;;2.55;2.10;;;8.40;99.90;;;;;;5039077;28;20205;-76
2024/02/01 04:32:21;;;;;;;4.20;1.80;;;8.40;99.90;;;;;;5040698;28;20208;-76
2024/02/01 04:34:48;;;;;;;2.25;1.77;;;8.40;99.90;;;;;;5041229;28;20206;-76
2024/02/01 04:37:15;;;;;;;3.20;1.95;;;8.40;99.90;;;;;;5042933;28;20200;-76
2024/02/01 04:39:43;;;;;;;2.58;1.95;;;8.40;99.90;;;;;;5040843;28;20556;-76
2024/02/01 04:42:16;;;;;;;3.20;2.08;;;8.40;99.90;;;;;;5046176;28;20205;-76
2024/02/01 04:44:43;;;;;;;2.00;1.77;;;8.40;99.90;;;;;;5040830;28;20208;-76
2024/02/01 04:47:10;;;;;;;2.10;1.90;;;8.40;99.90;;;;;;5041448;28;20225;-76
2024/02/01 04:49:37;;;;;;;2.03;1.80;;;8.40;99.90;;;;;;5041371;28;20229;-76
2024/02/01 04:52:05;;;;;;;3.47;1.40;;;8.40;99.90;;;;;;5047701;28;20252;-76
2024/02/01 04:54:34;;;;;;;2.60;2.08;;;8.40;99.90;;;;;;5042623;28;20701;-76
2024/02/01 04:57:03;;;;;;;2.75;2.20;;;8.40;99.90;;;;;;5048823;28;20280;-75
2024/02/01 04:59:31;;;;;;;1.85;1.40;;;8.40;99.90;;;;;;5046557;28;20228;-76
2024/02/01 05:01:57;;;;;;;2.42;1.85;;;8.40;99.90;;;;;;5046042;28;20198;-76
2024/02/01 05:04:24;;;;;;;1.60;1.40;;;8.40;99.90;;;;;;5048058;28;20578;-76
2024/02/01 05:06:51;;;;;;;3.05;1.98;;;8.40;99.90;;;;;;5045315;28;20232;-76
2024/02/01 05:09:32;;;;;;;5.57;2.22;;;8.30;99.90;;;;;;5046988;28;20290;-76
2024/02/01 05:11:58;;;;;;;2.70;2.25;;;8.30;99.90;;;;;;5047046;28;20247;-75
2024/02/01 05:14:26;;;;;;;3.90;1.95;;;8.40;99.90;;;;;;5047196;28;20212;-75
2024/02/01 05:16:53;;;;;;;3.03;2.13;;;8.40;99.90;;;;;;5040550;28;20210;-75
2024/02/01 05:19:21;;;;;;;1.65;1.52;;;8.40;99.90;;;;;;5042936;28;20232;-75
2024/02/01 05:21:48;;;;;;;2.58;1.80;;;8.40;99.90;;;;;;5042362;28;20589;-75
2024/02/01 05:24:15;;;;;;;1.83;1.73;;;8.40;99.90;;;;;;5044525;28;20202;-75
2024/02/01 05:26:46;;;;;;;5.22;1.90;;;8.50;99.90;;;;;;5047675;28;20228;-75
2024/02/01 05:29:13;;;;;;;2.58;1.73;;;8.40;99.90;;;;;;5045227;28;20327;-75
2024/02/01 05:31:47;;;;;;;1.58;1.13;;;8.40;99.90;;;;;;5043845;28;20212;-75
2024/02/01 05:34:14;;;;;;;1.40;1.30;;;8.40;99.90;;;;;;5045115;28;20677;-75
2024/02/01 05:36:41;;;;;;;3.10;1.65;;;8.40;99.90;;;;;;5046660;28;20663;-75
2024/02/01 05:39:24;;;;;;;2.50;1.80;;;8.40;99.90;;;;;;5043850;28;20630;-74
2024/02/01 05:41:51;;;;;;;1.90;1.60;;;8.40;99.90;;;;;;5042668;28;20737;-74
2024/02/01 05:44:18;;;;;;;2.25;1.80;;;8.30;99.90;;;;;;5040170;28;20215;-75
2024/02/01 05:46:46;;;;;;;2.80;1.67;;;8.30;99.90;;;;;;5043328;28;20223;-75
2024/02/01 05:49:13;;;;;;;2.00;1.85;;;8.30;99.90;;;;;;5044771;28;20247;-75
2024/02/01 05:51:42;;;;;;;3.00;2.10;;;8.30;99.90;;;;;;5043447;28;20213;-75
2024/02/01 05:54:09;;;;;;;5.88;2.03;;;8.30;99.90;;;;;;5044515;28;20292;-75
2024/02/01 05:56:36;;;;;;;3.92;2.03;;;8.30;99.90;;;;;;5044878;28;20204;-76
2024/02/01 05:59:02;;;;;;;2.10;1.88;;;8.30;99.90;;;;;;5043470;28;20229;-76
2024/02/01 06:01:30;;;;;;;2.25;2.00;;;8.30;99.90;;;;;;5045534;28;20208;-76
2024/02/01 06:03:58;;;;;;;2.78;1.90;;;8.30;99.90;;;;;;5045549;28;20617;-76
2024/02/01 06:06:25;;;;;;;1.75;1.45;;;8.30;99.90;;;;;;5045593;28;20228;-76
2024/02/01 06:08:52;;;;;;;1.83;1.50;;;8.30;99.90;;;;;;5043198;28;20231;-75
2024/02/01 06:11:18;;;;;;;2.05;1.85;;;8.30;99.90;;;;;;5040514;28;20213;-75
2024/02/01 06:13:45;;;;;;;1.67;1.55;;;8.40;99.90;;;;;;5044359;28;20209;-75
2024/02/01 06:16:12;;;;;;;3.25;2.13;;;8.30;99.90;;;;;;5045109;28;20205;-75
2024/02/01 06:18:39;;;;;;;4.70;2.40;;;8.40;99.90;;;;;;5045278;28;20228;-75
2024/02/01 06:21:08;;;;;;;3.83;2.35;;;8.40;99.90;;;;;;5044551;28;20771;-75
2024/02/01 06:23:35;;;;;;;2.40;2.05;;;8.40;99.90;;;;;;5048535;28;20632;-75
2024/02/01 06:26:05;;;;;;;4.15;2.72;;;8.40;99.90;;;;;;5051994;28;20289;-75
2024/02/01 06:28:31;;;;;;;1.98;1.80;;;8.40;99.90;;;;;;5046071;28;20228;-75
2024/02/01 06:30:58;;;;;;;3.40;1.83;;;8.40;99.90;;;;;;5046255;28;20213;-75
2024/02/01 06:33:29;;;;;;;3.38;2.05;;;8.30;99.90;;;;;;5046459;28;20590;-75
2024/02/01 06:35:56;;;;;;;3.95;1.90;;;8.30;99.90;;;;;;5043739;28;20205;-75
2024/02/01 06:38:44;;;;;;;2.42;2.10;;;8.20;99.90;;;;;;5046365;28;20243;-75
2024/02/01 06:41:27;;;;;;;1.73;1.63;;;8.20;99.90;;;;;;5061106;28;20212;-75
2024/02/01 06:44:09;;;;;;;4.03;1.92;;;8.20;99.90;;;;;;5047335;28;20215;-76
2024/02/01 06:47:05;;;;;;;3.45;1.85;;;8.20;99.90;;;;;;5046385;28;20316;-75
2024/02/01 06:49:59;;;;;;;2.03;1.83;;;8.20;99.90;;;;;;5042222;28;20307;-75
2024/02/01 06:52:35;;;;;;;1.83;1.65;;;8.20;99.90;;;;;;5041451;28;20582;-75
2024/02/01 06:57:53;;;;;;;8.15;2.30;;;8.00;99.90;;;;;;5045521;28;20270;-75
2024/02/01 07:00:40;;;;;;;1.48;1.35;;;8.00;99.90;;;;;;5040420;28;20217;-76
2024/02/01 07:03:13;;;;;;;2.53;1.52;;;8.00;99.90;;;;;;5056555;28;20743;-76
2024/02/01 07:08:34;;;;;;;1.58;1.40;;;7.90;99.90;;;;;;5044293;28;20224;-76
2024/02/01 07:11:14;;;;;;;2.13;1.75;;;7.90;99.90;;;;;;5048594;28;20304;-75
2024/02/01 07:13:57;;;;;;;4.05;2.20;;;7.80;99.90;;;;;;5050879;28;20306;-75
2024/02/01 07:16:24;;;;;;;4.05;1.90;;;7.80;99.90;;;;;;5041727;28;20593;-75
2024/02/01 07:19:09;;;;;;;2.60;1.95;;;7.80;99.90;;;;;;5051749;28;20223;-75
2024/02/01 07:21:59;;;;;;;3.28;1.85;;;7.70;99.90;;;;;;5045944;28;20213;-76
2024/02/01 07:24:38;;;;;;;2.08;1.77;;;7.70;99.90;;;;;;5050725;28;20200;-76
2024/02/01 07:57:51;;;;;;;1.48;1.35;;;7.50;99.90;;;;;;4965826;28;20229;-76
2024/02/01 08:00:27;;;;;;;1.83;1.70;;;7.50;99.90;;;;;;5028499;28;20215;-75
2024/02/01 08:03:03;;;;;;;1.45;1.27;;;7.50;99.90;;;;;;5049652;28;20212;-75
2024/02/01 08:08:15;;;;;;;3.05;1.30;;;7.50;99.90;;;;;;5067091;28;20324;-76
2024/02/01 08:10:43;;;;;;;2.17;1.60;;;7.50;99.90;;;;;;5050465;28;20209;-75
2024/02/01 08:13:12;;;;;;;2.13;1.55;;;7.50;99.90;;;;;;5049926;28;20209;-76
2024/02/01 08:15:42;;;;;;;3.08;1.58;;;7.50;99.90;;;;;;5050403;28;20262;-76
2024/02/01 08:18:09;;;;;;;2.30;1.67;;;7.50;99.90;;;;;;5049452;28;20255;-76
2024/02/01 08:20:36;;;;;;;2.55;1.90;;;7.40;99.90;;;;;;5050599;28;20299;-76
2024/02/01 08:23:03;;;;;;;1.90;1.70;;;7.50;99.90;;;;;;5050293;28;20208;-76
2024/02/01 08:25:30;;;;;;;2.20;1.73;;;7.40;99.90;;;;;;5050172;28;20207;-76
2024/02/01 08:27:58;;;;;;;7.00;1.77;;;7.40;99.90;;;;;;5049946;28;20228;-76
2024/02/01 08:30:27;;;;;;;1.45;1.35;;;7.40;99.90;;;;;;5050557;28;20699;-76
2024/02/01 08:32:57;;;;;;;2.25;1.48;;;7.40;99.90;;;;;;5050301;28;20212;-76
2024/02/01 08:35:24;;;;;;;4.55;2.20;;;7.40;99.90;;;;;;5050988;28;20625;-76
2024/02/01 08:37:55;;;;;;;3.55;1.98;;;7.50;99.90;;;;;;5050124;28;20235;-76
2024/02/01 08:40:22;;;;;;;2.88;2.08;;;7.40;99.90;;;;;;5043731;28;20203;-76
2024/02/01 08:42:51;;;;;;;1.40;1.30;;;7.40;99.90;;;;;;5050964;28;20220;-76
2024/02/01 08:45:18;;;;;;;2.63;2.20;;;7.40;99.90;;;;;;5043212;28;20269;-76
2024/02/01 08:47:45;;;;;;;3.15;1.40;;;7.50;99.90;;;;;;5050443;28;20230;-76
2024/02/01 08:50:15;;;;;;;1.80;1.67;;;7.50;99.90;;;;;;5050359;28;20249;-76
2024/02/01 08:52:45;;;;;;;2.10;1.77;;;7.50;99.90;;;;;;5050929;28;20588;-76
2024/02/01 08:55:13;;;;;;;2.22;1.70;;;7.50;99.90;;;;;;5050762;28;20263;-76
2024/02/01 08:57:41;;;;;;;2.75;1.45;;;7.50;99.90;;;;;;5050804;28;20228;-76
2024/02/01 09:00:25;;;;;;;1.50;1.40;;;7.40;99.90;;;;;;5050830;28;20208;-76
2024/02/01 09:03:04;;;;;;;2.30;1.40;;;7.50;99.90;;;;;;5051268;28;20672;-76
2024/02/01 09:05:34;;;;;;;3.75;1.83;;;7.50;99.90;;;;;;5044900;28;20212;-76
2024/02/01 09:08:02;;;;;;;3.28;2.08;;;7.50;99.90;;;;;;5051041;28;20227;-76
2024/02/01 09:10:29;;;;;;;3.55;1.90;;;7.50;99.90;;;;;;5051621;28;20204;-76
2024/02/01 09:12:56;;;;;;;1.95;1.63;;;7.50;99.90;;;;;;5051266;28;20226;-76
2024/02/01 09:15:22;;;;;;;2.50;1.52;;;7.50;99.90;;;;;;5051670;28;20285;-78
2024/02/01 09:17:49;;;;;;;4.30;1.42;;;7.50;99.90;;;;;;5051886;28;20229;-76
2024/02/01 09:20:21;;;;;;;4.32;1.98;;;7.50;99.90;;;;;;5039525;28;20212;-76
2024/02/01 09:22:51;;;;;;;1.90;1.65;;;7.60;99.90;;;;;;5031834;28;20239;-76
2024/02/01 09:25:22;;;;;;;2.10;1.85;;;7.60;99.90;;;;;;5030493;28;20207;-76
2024/02/01 09:27:50;;;;;;;2.35;1.38;;;7.60;99.90;;;;;;5031709;28;20228;-76
2024/02/01 09:30:19;;;;;;;3.38;1.63;;;7.60;99.90;;;;;;5031462;28;20204;-77
2024/02/01 09:32:49;;;;;;;2.35;1.30;;;7.50;99.90;;;;;;5031838;28;20697;-76
2024/02/01 09:35:16;;;;;;;1.83;1.65;;;7.50;99.90;;;;;;5031478;28;20219;-76
2024/02/01 09:37:43;;;;;;;1.65;1.55;;;7.60;99.90;;;;;;5041181;28;20221;-76
2024/02/01 09:40:12;;;;;;;2.88;1.88;;;7.60;99.90;;;;;;5040448;28;20708;-76
2024/02/01 09:42:41;;;;;;;1.88;1.40;;;7.70;99.90;;;;;;5031920;28;20216;-76
2024/02/01 09:45:09;;;;;;;1.85;1.65;;;7.80;99.90;;;;;;5031595;28;20296;-76
2024/02/01 09:47:43;;;;;;;1.20;1.10;;;7.90;99.90;;;;;;5031712;28;20709;-76
2024/02/01 09:50:13;;;;;;;2.10;1.35;;;8.00;99.90;;;;;;5031729;28;20224;-76
2024/02/01 09:52:41;;;;;;;3.42;1.90;;;8.00;99.90;;;;;;5031712;28;20229;-76
2024/02/01 09:55:08;;;;;;;2.25;1.52;;;8.10;99.90;;;;;;5031568;28;20212;-76
2024/02/01 09:57:40;;;;;;;2.00;1.90;;;8.20;99.90;;;;;;5032869;28;20561;-76
2024/02/01 10:00:12;;;;;;;3.17;1.85;;;8.20;99.90;;;;;;5033453;28;20213;-77
2024/02/01 10:02:40;;;;;;;1.90;1.80;;;8.30;99.90;;;;;;5033343;28;20220;-76
2024/02/01 10:05:07;;;;;;;1.95;1.63;;;8.30;99.90;;;;;;5033740;28;20205;-76
2024/02/01 10:07:34;;;;;;;3.70;2.17;;;8.30;99.90;;;;;;5033238;28;20236;-76
2024/02/01 10:10:02;;;;;;;2.15;1.70;;;8.30;99.90;;;;;;5034698;28;20597;-77
2024/02/01 10:12:29;;;;;;;1.90;1.70;;;8.30;99.90;;;;;;5038934;28;20228;-77
2024/02/01 10:14:57;;;;;;;2.03;1.60;;;8.30;99.90;;;;;;5031877;28;20238;-77
2024/02/01 10:17:25;;;;;;;2.53;1.50;;;8.30;99.90;;;;;;5031907;28;20266;-76
2024/02/01 10:19:52;;;;;;;1.52;1.42;;;8.40;99.90;;;;;;5032055;28;20221;-76
2024/02/01 10:22:20;;;;;;;1.50;1.30;;;8.40;99.90;;;;;;5039191;28;20209;-76
2024/02/01 10:24:49;;;;;;;2.35;1.55;;;8.40;99.90;;;;;;5032235;28;20217;-76
2024/02/01 10:27:19;;;;;;;2.47;1.70;;;8.50;99.90;;;;;;5032434;28;20672;-77
2024/02/01 10:29:47;;;;;;;1.70;1.50;;;8.60;99.90;;;;;;5032514;28;20619;-77
2024/02/01 10:32:16;;;;;;;1.50;1.40;;;8.80;99.90;;;;;;5040005;28;20220;-77
2024/02/01 10:34:50;;;;;;;2.15;1.55;;;8.80;99.90;;;;;;5032818;28;20292;-77
2024/02/01 10:37:18;;;;;;;1.30;1.13;;;8.80;99.90;;;;;;5034938;28;20212;-77
2024/02/01 10:39:51;;;;;;;2.10;1.55;;;8.90;99.90;;;;;;5036770;28;20216;-76
2024/02/01 10:42:22;;;;;;;2.03;1.48;;;9.00;99.90;;;;;;5037495;28;20205;-77
2024/02/01 10:44:50;;;;;;;2.03;1.70;;;9.10;99.90;;;;;;5036573;28;20205;-77
2024/02/01 10:47:25;;;;;;;1.40;1.30;;;9.10;99.90;;;;;;5037046;28;20216;-76
2024/02/01 10:49:54;;;;;;;1.77;1.52;;;9.00;99.90;;;;;;5037036;28;20300;-77
2024/02/01 10:52:21;;;;;;;1.25;1.13;;;9.10;99.90;;;;;;5036533;28;20210;-76
2024/02/01 10:54:49;;;;;;;1.40;1.02;;;9.10;99.90;;;;;;5037040;28;20210;-76
2024/02/01 10:57:17;;;;;;;1.85;1.50;;;9.20;99.90;;;;;;5040308;28;20274;-76
2024/02/01 10:59:46;;;;;;;3.17;2.10;;;9.30;99.90;;;;;;5036693;28;20571;-76
2024/02/01 11:02:14;;;;;;;1.20;1.10;;;9.40;99.90;;;;;;5039163;28;20210;-77
2024/02/01 11:04:46;;;;;;;2.25;1.40;;;9.40;99.90;;;;;;5041992;28;20678;-77
2024/02/01 11:07:19;;;;;;;2.10;1.25;;;9.30;99.90;;;;;;5038039;28;20235;-77
2024/02/01 11:09:48;;;;;;;2.20;1.52;;;9.30;99.90;;;;;;5036745;28;20226;-77
2024/02/01 11:12:22;;;;;;;1.10;1.00;;;9.30;99.90;;;;;;5037895;28;20206;-76
2024/02/01 11:14:49;;;;;;;1.33;1.23;;;9.30;99.90;;;;;;5037229;28;20209;-76
2024/02/01 11:17:19;;;;;;;1.30;0.90;;;9.30;99.90;;;;;;5037852;28;20213;-77
2024/02/01 11:19:50;;;;;;;1.65;1.55;;;9.30;99.90;;;;;;5036988;28;20594;-76
2024/02/01 11:22:19;;;;;;;1.08;0.90;;;9.30;99.90;;;;;;5037826;28;20589;-76
2024/02/01 11:24:46;;;;;;;1.55;1.10;;;9.30;99.90;;;;;;5043820;28;20217;-76
2024/02/01 11:27:15;;;;;;;1.50;1.10;;;9.30;99.90;;;;;;5038017;28;20785;-77
2024/02/01 11:29:46;;;;;;;1.17;1.08;;;9.30;99.90;;;;;;5036736;28;20233;-76
2024/02/01 11:32:16;;;;;;;1.05;0.90;;;9.30;99.90;;;;;;5045749;28;20297;-76
2024/02/01 11:34:49;;;;;;;1.45;1.10;;;9.30;99.90;;;;;;5036904;28;20666;-76
2024/02/01 11:37:18;;;;;;;1.25;1.00;;;9.30;99.90;;;;;;5038101;28;20323;-76
2024/02/01 11:39:46;;;;;;;1.00;0.90;;;9.30;99.90;;;;;;5037707;28;20214;-77
2024/02/01 11:42:13;;;;;;;1.00;0.90;;;9.30;99.90;;;;;;5040732;28;20213;-76
2024/02/01 11:44:41;;;;;;;0.90;0.80;;;9.30;99.90;;;;;;5046003;28;20217;-76
2024/02/01 11:47:07;;;;;;;1.55;0.98;;;9.50;99.90;;;;;;5038711;28;20744;-77
2024/02/01 11:49:36;;;;;;;0.80;0.70;;;9.80;99.90;;;;;;5036178;28;20840;-77
2024/02/01 11:52:14;;;;;;;1.33;0.98;;;10.10;99.90;;;;;;5038237;28;20666;-77
2024/02/01 11:54:46;;;;;;;1.20;0.90;;;10.40;99.90;;;;;;5046354;28;20206;-77
2024/02/01 11:57:17;;;;;;;1.00;0.90;;;10.60;99.90;;;;;;5044781;28;20285;-77
2024/02/01 11:59:44;;;;;;;2.65;0.80;;;10.70;99.90;;;;;;5040975;28;20212;-76
2024/02/01 12:02:11;;;;;;;1.85;0.80;;;10.70;99.90;;;;;;5045500;28;20217;-76
2024/02/01 12:04:40;;;;;;;0.93;0.82;;;10.60;99.90;;;;;;5043010;28;20214;-77
2024/02/01 12:07:08;;;;;;;0.95;0.70;;;10.50;99.90;;;;;;5038939;28;20233;-77
2024/02/01 12:09:35;;;;;;;0.80;0.70;;;10.60;99.90;;;;;;5051003;28;20240;-77
2024/02/01 12:12:05;;;;;;;2.55;0.85;;;10.60;99.90;;;;;;5040348;28;20202;-77
2024/02/01 12:14:33;;;;;;;0.90;0.80;;;10.60;99.90;;;;;;5037284;28;20230;-77
2024/02/01 12:17:02;;;;;;;0.75;0.68;;;10.40;99.90;;;;;;5037923;28;20206;-77
2024/02/01 12:19:37;;;;;;;0.93;0.80;;;10.30;99.90;;;;;;5037824;28;20218;-77
2024/02/01 12:22:05;;;;;;;0.95;0.85;;;10.20;99.90;;;;;;5038061;28;20611;-77
2024/02/01 12:24:34;;;;;;;0.80;0.70;;;10.20;99.90;;;;;;5036505;28;20214;-77
2024/02/01 12:27:01;;;;;;;0.90;0.70;;;10.30;99.90;;;;;;5038292;28;20308;-77
2024/02/01 12:29:30;;;;;;;1.20;0.70;;;10.50;99.90;;;;;;5037610;28;20470;-77
2024/02/01 12:31:57;;;;;;;0.80;0.80;;;10.70;99.90;;;;;;5037786;28;20202;-77
2024/02/01 12:34:25;;;;;;;0.98;0.88;;;10.80;99.90;;;;;;5038312;28;20634;-77
2024/02/01 12:36:51;;;;;;;1.00;0.80;;;10.80;99.90;;;;;;5037059;28;20619;-76
2024/02/01 12:39:18;;;;;;;0.80;0.70;;;10.70;99.90;;;;;;5036616;28;20612;-76
2024/02/01 12:41:46;;;;;;;1.02;0.93;;;10.60;99.90;;;;;;5042390;28;20243;-76
2024/02/01 12:44:14;;;;;;;1.00;0.80;;;10.50;99.90;;;;;;5045760;28;20205;-77
2024/02/01 12:46:43;;;;;;;1.25;0.90;;;10.40;99.90;;;;;;5038270;28;20226;-76
2024/02/01 12:49:12;;;;;;;1.35;1.00;;;10.30;99.90;;;;;;5040066;28;20225;-76
2024/02/01 12:51:41;;;;;;;1.20;0.85;;;10.20;99.90;;;;;;5042770;28;20203;-76
2024/02/01 12:54:08;;;;;;;1.00;0.90;;;10.10;99.90;;;;;;5039044;28;20633;-76
2024/02/01 12:56:36;;;;;;;0.80;0.80;;;10.00;99.90;;;;;;5037475;28;20286;-76
2024/02/01 12:59:04;;;;;;;1.17;0.93;;;9.90;99.90;;;;;;5038112;28;20218;-76
2024/02/01 13:01:32;;;;;;;2.13;1.10;;;9.80;99.90;;;;;;5038098;28;20220;-76
2024/02/01 13:04:01;;;;;;;1.00;0.90;;;9.70;99.90;;;;;;5037883;28;20222;-76
2024/02/01 13:06:27;;;;;;;1.08;0.90;;;9.60;99.90;;;;;;5038480;28;20212;-76
2024/02/01 13:08:54;;;;;;;1.88;1.52;;;9.50;99.90;;;;;;5037538;28;20232;-77
2024/02/01 13:11:27;;;;;;;1.42;1.05;;;9.50;99.90;;;;;;5039229;28;20235;-76
2024/02/01 13:13:55;;;;;;;1.40;1.30;;;9.40;99.90;;;;;;5037597;28;20289;-76
2024/02/01 13:16:23;;;;;;;1.35;1.10;;;9.40;99.90;;;;;;5038847;28;20200;-76
2024/02/01 13:18:50;;;;;;;1.58;1.48;;;9.30;99.90;;;;;;5037674;28;20214;-76
2024/02/01 13:21:18;;;;;;;1.85;1.20;;;9.30;99.90;;;;;;5039784;28;20703;-76
2024/02/01 13:23:46;;;;;;;1.77;1.60;;;9.20;99.90;;;;;;5037535;28;20229;-76
2024/02/01 13:26:12;;;;;;;1.60;1.45;;;9.20;99.90;;;;;;5039731;28;20225;-76
2024/02/01 13:28:39;;;;;;;2.03;1.27;;;9.10;99.90;;;;;;5037272;28;20313;-76
2024/02/01 13:31:06;;;;;;;2.20;1.52;;;9.00;99.90;;;;;;5044053;28;20204;-76
2024/02/01 13:33:35;;;;;;;1.60;1.40;;;8.90;99.90;;;;;;5038664;28;20212;-76
2024/02/01 13:36:02;;;;;;;1.52;1.42;;;8.80;99.90;;;;;;5038187;28;20296;-76
2024/02/01 13:38:30;;;;;;;1.92;1.60;;;8.80;99.90;;;;;;5046025;28;20229;-77
2024/02/01 13:40:58;;;;;;;1.77;1.50;;;8.70;99.90;;;;;;5040638;28;20292;-76
2024/02/01 13:43:25;;;;;;;1.60;1.40;;;8.70;99.90;;;;;;5045115;28;20634;-76